Latest Weather Observations for Kalumburu

IDD60801

Issued at 9:11 am CST Wednesday 19 June 2019 (issued every 10 minutes, with the page automatically refreshed every 10 minutes)

About weather observations | Map of weather stations | Latest weather observations for NT | Other Formats
Station Details ID: 001019 Name: KALUMBURU Lat: -14.30 Lon: 126.65 Height: 23.0 m
Data from the previous 72 hours. | See also: Recent months at Kalumburu
Date/Time
CST
Temp
°C
App
Temp
°C
Dew
Point
°C
Rel
Hum
%
Delta-T
°C
Wind Press
QNH
hPa
Press
MSL
hPa
Rain since
9am
mm
Dir  Spd
km/h
Gust
km/h
Spd
kts
Gust
kts
19/09:00am 22.5 23.1 15.4 64 4.2 SSE 6 13 3 7 1016.5 1016.4 -
19/08:30am 18.9 21.2 17.6 92 0.8 SSW 2 7 1 4 1016.3 1016.2 -
19/08:00am 15.8 16.8 14.3 91 0.9 ESE 2 7 1 4 1016.0 1015.9 -
19/07:30am 16.3 17.9 15.0 92 0.8 CALM 0 0 0 0 1015.4 1015.3 -
19/07:00am 15.7 17.0 14.2 91 0.9 CALM 0 0 0 0 1015.3 1015.2 -
19/06:30am 15.9 17.3 14.3 90 0.9 CALM 0 0 0 0 1015.1 1015.0 -
19/06:00am 16.4 18.0 14.8 90 0.9 CALM 0 6 0 3 1015.0 1014.9 -
19/05:30am 17.1 18.9 15.6 91 0.9 CALM 0 0 0 0 1014.9 1014.8 -
19/05:00am 16.9 18.3 15.4 91 0.9 NNE 2 7 1 4 1014.8 1014.7 -
19/04:30am 16.8 18.4 15.0 89 1.0 CALM 0 0 0 0 1014.8 1014.7 0.0
19/04:00am 17.0 18.7 15.2 89 1.0 CALM 0 0 0 0 1014.5 1014.4 -
19/03:30am 17.5 19.4 15.8 90 1.0 CALM 0 0 0 0 1014.6 1014.5 -
19/03:00am 17.8 19.8 16.1 90 1.0 CALM 0 0 0 0 1014.6 1014.5 -
19/02:30am 17.6 19.4 15.4 87 1.3 CALM 0 0 0 0 1014.7 1014.6 -
19/02:00am 18.8 21.2 16.9 89 1.1 CALM 0 0 0 0 1014.9 1014.8 -
19/01:30am 18.2 20.2 16.0 87 1.3 CALM 0 0 0 0 1014.8 1014.7 -
19/01:00am 19.0 21.3 16.8 87 1.3 CALM 0 0 0 0 1014.8 1014.7 -
19/12:30am 19.3 21.6 16.7 85 1.6 CALM 0 0 0 0 1014.8 1014.7 -
19/12:00am 20.1 22.5 17.1 83 1.8 CALM 0 0 0 0 1015.0 1014.9 -
 
Date/Time
CST
Temp
°C
App
Temp
°C
Dew
Point
°C
Rel
Hum
%
Delta-T
°C
Wind Press
QNH
hPa
Press
MSL
hPa
Rain since
9am
mm
Dir  Spd
km/h
Gust
km/h
Spd
kts
Gust
kts
18/11:30pm 21.0 23.6 17.4 80 2.2 CALM 0 0 0 0 1015.0 1014.9 -
18/11:00pm 21.6 24.1 17.2 76 2.7 CALM 0 0 0 0 1015.1 1015.0 -
18/10:30pm 22.8 25.7 18.1 75 2.9 CALM 0 0 0 0 1015.1 1015.0 0.0
18/10:00pm 23.8 26.0 17.5 68 3.9 N 2 7 1 4 1015.1 1015.0 -
18/09:30pm 24.4 27.0 17.4 65 4.4 CALM 0 0 0 0 1015.0 1014.9 -
18/09:00pm 25.2 26.4 17.4 62 4.9 N 7 11 4 6 1014.8 1014.7 -
18/08:30pm 25.4 26.1 17.1 60 5.2 N 9 15 5 8 1014.5 1014.4 -
18/08:00pm 26.0 26.4 16.3 55 6.0 N 9 13 5 7 1014.1 1014.0 -
18/07:30pm 25.8 26.3 15.5 53 6.3 N 7 11 4 6 1013.7 1013.6 -
18/07:00pm 26.6 26.9 15.9 51 6.6 N 9 20 5 11 1013.4 1013.3 -
18/06:30pm 26.9 28.3 19.5 64 4.8 NNW 11 19 6 10 1013.0 1012.9 -
18/06:00pm 27.5 27.5 19.0 59 5.5 NNW 17 24 9 13 1012.7 1012.6 -
18/05:30pm 28.3 28.3 19.0 57 6.0 NNW 17 24 9 13 1012.4 1012.3 -
18/05:00pm 29.5 29.5 18.9 53 6.9 NNW 17 24 9 13 1012.3 1012.2 -
18/04:30pm 28.2 27.7 17.7 53 6.7 N 17 26 9 14 1012.3 1012.2 -
18/04:00pm 31.3 30.8 18.6 46 8.2 NNW 19 28 10 15 1012.3 1012.2 -
18/03:30pm 30.7 29.6 17.4 45 8.5 NNW 19 28 10 15 1012.4 1012.3 -
18/03:00pm 31.1 29.9 17.0 42 8.9 NNW 19 28 10 15 1012.4 1012.3 -
18/02:30pm 31.5 30.2 15.9 39 9.7 NNW 17 28 9 15 1012.6 1012.5 -
18/02:00pm 30.8 29.6 16.0 40 9.2 NNW 17 24 9 13 1012.9 1012.8 -
18/01:30pm 31.5 30.4 16.3 40 9.5 NW 17 28 9 15 1013.4 1013.3 -
18/01:00pm 31.2 30.9 16.4 41 9.3 NNW 13 20 7 11 1014.1 1014.0 -
18/12:30pm 32.3 31.6 14.4 33 10.9 ENE 11 20 6 11 1014.6 1014.5 -
18/12:00pm 30.8 29.5 13.6 35 10.3 NNE 13 22 7 12 1014.9 1014.8 -
18/11:30am 31.2 31.9 16.0 40 9.5 NW 7 17 4 9 1015.2 1015.1 -
18/11:00am 29.6 30.7 17.1 47 7.9 SSW 7 11 4 6 1015.6 1015.5 0.0
18/10:30am 28.4 30.4 18.8 56 6.2 SW 6 7 3 4 1015.9 1015.8 0.0
18/10:00am 26.8 29.2 19.7 65 4.6 SSW 6 9 3 5 1016.0 1015.9 0.0
18/09:30am 24.8 27.8 20.1 75 3.0 SSW 4 6 2 3 1016.0 1015.9 0.0
18/09:00am 22.9 26.3 20.1 84 1.8 S 2 7 1 4 1015.8 1015.7 0.0
18/08:30am 20.6 24.0 19.3 92 0.8 CALM 0 0 0 0 1015.6 1015.5 0.0
18/08:00am 17.8 19.2 16.3 91 0.9 SSE 4 6 2 3 1015.1 1015.0 0.0
18/07:30am 17.4 19.3 15.7 90 1.0 CALM 0 0 0 0 1014.9 1014.8 0.0
18/07:00am 17.9 20.1 16.4 91 0.9 CALM 0 0 0 0 1014.6 1014.5 0.0
18/06:30am 18.3 19.9 17.0 92 0.8 NNE 4 11 2 6 1014.5 1014.4 0.0
18/06:00am 16.7 17.5 14.7 88 1.2 NNE 4 11 2 6 1014.4 1014.3 0.0
18/05:30am 17.8 19.8 16.1 90 1.0 CALM 0 0 0 0 1014.0 1013.9 0.0
18/05:00am 17.7 19.7 15.9 89 1.1 CALM 0 0 0 0 1013.9 1013.8 0.0
18/04:30am 18.0 20.1 16.2 89 1.1 CALM 0 0 0 0 1014.0 1013.9 0.0
18/04:00am 18.0 20.1 16.2 89 1.1 CALM 0 0 0 0 1014.1 1014.0 0.0
18/03:30am 18.6 20.9 16.8 89 1.1 CALM 0 0 0 0 1014.4 1014.3 0.0
18/03:00am 18.6 20.8 16.6 88 1.2 CALM 0 0 0 0 1014.6 1014.5 0.0
18/02:30am 18.8 21.1 16.8 88 1.2 CALM 0 0 0 0 1014.9 1014.8 0.0
18/02:00am 18.9 21.3 16.9 88 1.2 CALM 0 0 0 0 1015.0 1014.9 0.0
18/01:30am 19.3 21.7 17.1 87 1.3 CALM 0 0 0 0 1015.0 1014.9 0.0
18/01:00am 19.7 22.3 17.5 87 1.3 CALM 0 0 0 0 1015.1 1015.0 0.0
18/12:30am 19.8 22.3 17.2 85 1.6 CALM 0 0 0 0 1015.3 1015.2 0.0
18/12:00am 20.3 23.0 17.7 85 1.6 CALM 0 0 0 0 1015.4 1015.3 0.0
 
Date/Time
CST
Temp
°C
App
Temp
°C
Dew
Point
°C
Rel
Hum
%
Delta-T
°C
Wind Press
QNH
hPa
Press
MSL
hPa
Rain since
9am
mm
Dir  Spd
km/h
Gust
km/h
Spd
kts
Gust
kts
17/11:30pm 20.4 23.0 17.4 83 1.8 CALM 0 0 0 0 1015.6 1015.5 0.0
17/11:00pm 20.8 23.3 17.2 80 2.2 CALM 0 0 0 0 1015.6 1015.5 0.0
17/10:30pm 22.4 25.5 18.6 79 2.4 CALM 0 0 0 0 1015.6 1015.5 0.0
17/10:00pm 22.7 25.6 18.3 76 2.8 CALM 0 0 0 0 1015.6 1015.5 0.0
17/09:30pm 24.0 25.7 18.0 69 3.8 N 6 7 3 4 1015.5 1015.4 0.0
17/09:00pm 25.1 26.6 18.1 65 4.4 N 7 11 4 6 1015.2 1015.1 0.0
17/08:30pm 25.8 26.9 18.0 62 4.9 NNE 9 15 5 8 1014.8 1014.7 0.0
17/08:00pm 26.1 27.6 18.8 64 4.7 N 9 13 5 7 1014.4 1014.3 0.0
17/07:30pm 26.1 28.9 20.9 73 3.4 N 7 15 4 8 1013.9 1013.8 0.0
17/07:00pm 26.8 28.1 20.2 67 4.3 N 13 20 7 11 1013.4 1013.3 0.0
17/06:30pm 27.6 27.3 19.1 59 5.5 N 19 24 10 13 1013.1 1013.0 0.0
17/06:00pm 28.6 27.6 17.5 51 7.0 N 19 30 10 16 1012.6 1012.5 0.0
17/05:30pm 29.7 29.4 18.2 50 7.4 N 17 26 9 14 1012.0 1011.9 0.0
17/05:00pm 32.4 32.0 17.1 40 9.7 N 15 22 8 12 1011.7 1011.6 0.0
17/04:30pm 31.6 29.5 15.1 36 10.2 N 20 28 11 15 1011.5 1011.4 0.0
17/04:00pm 33.3 32.0 15.8 35 11.0 NNW 17 22 9 12 1011.3 1011.2 0.0
17/03:30pm 32.8 31.2 14.9 34 11.1 NNW 17 22 9 12 1011.7 1011.6 0.0
17/03:00pm 32.3 32.3 15.3 35 10.5 NE 9 20 5 11 1011.9 1011.8 0.0
17/02:30pm 33.4 32.7 15.4 34 11.2 NNE 13 20 7 11 1012.2 1012.1 0.0
17/02:00pm 33.6 32.3 13.6 29 12.1 NE 13 20 7 11 1012.7 1012.6 0.0
17/01:30pm 33.5 31.8 13.5 29 12.1 NNE 15 22 8 12 1013.2 1013.1 0.0
17/01:00pm 33.4 32.1 14.9 32 11.4 NE 15 39 8 21 1013.8 1013.7 0.0
17/12:30pm 32.6 32.4 15.6 36 10.6 NE 11 19 6 10 1014.2 1014.1 0.0
17/12:00pm 31.2 32.0 16.4 41 9.3 WSW 7 11 4 6 1014.7 1014.6 0.0
17/11:30am 30.7 32.2 18.1 47 8.1 ENE 7 11 4 6 1015.0 1014.9 0.0
17/11:00am 29.3 31.5 20.5 59 5.8 SSE 9 15 5 8 1015.2 1015.1 0.0
17/10:30am 28.3 30.8 21.1 65 4.8 SSE 9 13 5 7 1015.5 1015.4 0.0
17/10:00am 27.1 29.8 21.4 71 3.8 S 9 15 5 8 1015.8 1015.7 0.0
17/09:30am 25.9 28.8 21.8 78 2.7 S 9 13 5 7 1015.7 1015.6 0.0
17/09:00am 23.9 27.8 21.2 85 1.8 SSW 2 7 1 4 1015.6 1015.5 0.0
17/08:30am 21.7 25.5 20.2 91 1.0 CALM 0 0 0 0 1015.4 1015.3 0.0
17/08:00am 18.8 21.2 17.1 90 1.0 CALM 0 0 0 0 1015.0 1014.9 0.0
17/07:30am 18.8 21.3 17.3 91 0.9 CALM 0 0 0 0 1014.9 1014.8 0.0
17/07:00am 18.7 21.1 17.0 90 1.0 CALM 0 0 0 0 1014.5 1014.4 0.0
17/06:30am 18.7 21.1 17.0 90 1.0 CALM 0 0 0 0 1014.2 1014.1 0.0
17/06:00am 19.4 22.2 17.9 91 0.9 CALM 0 0 0 0 1014.2 1014.1 0.0
17/05:30am 19.4 22.1 17.7 90 1.0 CALM 0 0 0 0 1014.0 1013.9 0.0
17/05:00am 19.3 21.9 17.4 89 1.2 CALM 0 0 0 0 1013.9 1013.8 0.0
17/04:30am 19.4 22.1 17.7 90 1.0 CALM 0 0 0 0 1013.9 1013.8 0.0
17/04:00am 19.8 22.7 18.1 90 1.1 CALM 0 0 0 0 1013.8 1013.7 0.0
17/03:30am 19.7 22.5 18.0 90 1.0 CALM 0 0 0 0 1013.9 1013.8 0.0
17/03:00am 19.7 22.4 17.8 89 1.2 CALM 0 0 0 0 1014.2 1014.1 0.0
17/02:30am 20.2 23.1 18.1 88 1.3 CALM 0 0 0 0 1014.3 1014.2 0.0
17/02:00am 20.2 23.1 18.1 88 1.3 CALM 0 0 0 0 1014.6 1014.5 0.0
17/01:30am 20.5 23.5 18.4 88 1.3 CALM 0 0 0 0 1014.7 1014.6 0.0
17/01:00am 20.6 23.6 18.5 88 1.3 CALM 0 0 0 0 1014.8 1014.7 0.0
17/12:30am 20.4 23.3 18.3 88 1.3 CALM 0 0 0 0 1014.9 1014.8 0.0
17/12:00am 20.9 24.0 18.7 87 1.4 CALM 0 0 0 0 1014.9 1014.8 0.0
 
Date/Time
CST
Temp
°C
App
Temp
°C
Dew
Point
°C
Rel
Hum
%
Delta-T
°C
Wind Press
QNH
hPa
Press
MSL
hPa
Rain since
9am
mm
Dir  Spd
km/h
Gust
km/h
Spd
kts
Gust
kts
16/11:30pm 21.1 24.3 18.9 87 1.4 CALM 0 0 0 0 1015.0 1014.9 0.0
16/11:00pm 21.3 24.4 18.7 85 1.6 CALM 0 0 0 0 1014.9 1014.8 0.0
16/10:30pm 21.9 25.4 19.5 86 1.5 CALM 0 0 0 0 1014.8 1014.7 0.0
16/10:00pm 22.1 25.6 19.5 85 1.7 CALM 0 0 0 0 1014.6 1014.5 0.0
16/09:30pm 22.0 25.0 18.4 80 2.3 CALM 0 0 0 0 1014.5 1014.4 0.0
16/09:00pm 22.9 26.1 18.9 78 2.5 CALM 0 0 0 0 1014.2 1014.1 0.0
16/08:30pm 24.2 26.9 19.5 75 3.0 NW 4 6 2 3 1013.8 1013.7 0.0
16/08:00pm 25.5 28.2 19.4 69 3.9 NNW 4 6 2 3 1013.4 1013.3 0.0
16/07:30pm 26.3 28.2 18.9 63 4.7 N 7 11 4 6 1013.1 1013.0 0.0
16/07:00pm 26.9 27.9 17.7 57 5.8 N 9 13 5 7 1012.8 1012.7 0.0
16/06:30pm 27.7 28.0 17.8 54 6.3 NNW 13 20 7 11 1012.5 1012.4 0.0
16/06:00pm 28.6 28.6 18.1 53 6.7 NNW 15 20 8 11 1012.2 1012.1 0.0
16/05:30pm 29.2 29.5 19.5 56 6.3 NNW 17 24 9 13 1011.9 1011.8 0.0
16/05:00pm 29.9 29.5 19.0 52 7.1 N 19 28 10 15 1011.7 1011.6 0.0
16/04:30pm 31.0 31.0 19.0 48 7.8 N 17 26 9 14 1011.5 1011.4 0.0
16/04:00pm 31.6 30.6 16.7 40 9.4 N 17 24 9 13 1011.4 1011.3 0.0
16/03:30pm 32.8 32.1 17.4 39 9.9 NNW 17 24 9 13 1011.4 1011.3 0.0
16/03:00pm 32.9 32.5 17.1 39 10.1 NNW 15 20 8 11 1011.7 1011.6 0.0
16/02:30pm 32.9 32.3 17.5 39 9.9 NNW 17 20 9 11 1012.1 1012.0 0.0
16/02:00pm 33.4 33.5 18.3 40 9.8 NNW 15 20 8 11 1012.5 1012.4 0.0
16/01:30pm 32.6 32.2 18.0 41 9.4 NNW 17 24 9 13 1013.0 1012.9 0.0
16/01:00pm 32.5 32.8 18.7 44 9.0 NNW 15 20 8 11 1013.5 1013.4 0.0
16/12:30pm 31.0 30.9 18.7 48 8.0 NW 17 24 9 13 1014.0 1013.9 0.0
16/12:00pm 33.3 33.8 16.6 36 10.6 NW 9 15 5 8 1014.3 1014.2 0.0
16/11:30am 32.4 32.8 16.3 38 10.1 NNE 9 17 5 9 1014.7 1014.6 0.0
16/11:00am 31.1 32.5 17.4 44 8.7 SW 6 9 3 5 1015.1 1015.0 0.0

Other formats

Comma delimited format used in spreadsheet applications
http://www.bom.gov.au/fwo/IDD60801/IDD60801.94100.axf

JavaScript Object Notation format (JSON) in row-major order
http://www.bom.gov.au/fwo/IDD60801/IDD60801.94100.json

Data quality

Most of these data are generated automatically and are frequently updated. Quality checks on data are not normally performed. It is possible for incorrect values to appear. Refer to information at About Latest Weather Observations and please check the disclaimer before using these data.